createdAt,value
2017-09-03T00:02:12.273Z,96.50
2017-09-03T00:05:17.540Z,96.40
2017-09-03T00:08:22.844Z,96.70
2017-09-03T00:11:29.803Z,97.00
2017-09-03T00:14:34.472Z,97.40
2017-09-03T00:17:39.431Z,97.00
2017-09-03T00:20:53.213Z,97.10
2017-09-03T00:23:59.907Z,97.30
2017-09-03T00:27:05.432Z,97.30
2017-09-03T00:30:14.584Z,97.40
2017-09-03T00:33:23.207Z,97.30
2017-09-03T00:36:30.024Z,98.20
2017-09-03T00:39:36.539Z,98.00
2017-09-03T00:42:42.259Z,97.90
2017-09-03T00:45:47.129Z,97.60
2017-09-03T00:48:51.987Z,97.40
2017-09-03T00:52:04.396Z,97.40
2017-09-03T00:55:09.283Z,97.80
2017-09-03T00:58:14.792Z,97.90
2017-09-03T01:01:20.911Z,97.80
2017-09-03T01:04:26.131Z,97.80
2017-09-03T01:07:31.391Z,97.60
2017-09-03T01:10:37.711Z,97.10
2017-09-03T01:13:44.085Z,97.60
2017-09-03T01:16:50.776Z,97.90
2017-09-03T01:19:56.048Z,97.50
2017-09-03T01:23:00.812Z,97.80
2017-09-03T01:26:05.884Z,96.50
2017-09-03T01:29:18.667Z,97.10
2017-09-03T01:32:24.021Z,98.10
2017-09-03T01:35:37.044Z,97.90
2017-09-03T01:38:45.013Z,97.80
2017-09-03T01:41:49.899Z,97.80
2017-09-03T01:44:54.968Z,97.70
2017-09-03T01:48:00.981Z,97.90
2017-09-03T01:51:05.752Z,97.80
2017-09-03T01:54:11.388Z,97.60
2017-09-03T01:57:17.814Z,97.50
2017-09-03T02:00:24.033Z,97.30
2017-09-03T02:03:45.570Z,97.20
2017-09-03T02:06:50.545Z,97.60
2017-09-03T02:09:55.660Z,97.10
2017-09-03T02:13:00.614Z,97.10
2017-09-03T02:16:05.811Z,97.20
2017-09-03T02:19:12.516Z,97.30
2017-09-03T02:22:17.849Z,97.30
2017-09-03T02:25:22.467Z,97.20
2017-09-03T02:28:30.256Z,97.20
2017-09-03T02:31:37.128Z,97.20
2017-09-03T02:34:43.272Z,97.20
2017-09-03T02:37:48.801Z,97.20
2017-09-03T02:40:54.371Z,96.80
2017-09-03T02:43:59.708Z,96.70
2017-09-03T02:47:05.488Z,96.80
2017-09-03T02:50:17.062Z,96.80
2017-09-03T02:53:23.579Z,96.70
2017-09-03T02:56:29.853Z,96.70
2017-09-03T02:59:37.881Z,96.80
2017-09-03T03:02:42.635Z,97.00
2017-09-03T03:05:58.192Z,96.90
2017-09-03T03:09:04.703Z,96.80
2017-09-03T03:12:10.120Z,96.90
2017-09-03T03:15:24.295Z,97.00
2017-09-03T03:18:31.009Z,96.80
2017-09-03T03:21:35.844Z,97.00
2017-09-03T03:24:40.951Z,97.20
2017-09-03T03:27:46.771Z,97.40
2017-09-03T03:30:53.009Z,97.40
2017-09-03T03:34:00.809Z,97.40
2017-09-03T03:37:06.956Z,97.40
2017-09-03T03:40:14.339Z,97.40
2017-09-03T03:43:19.239Z,97.50
2017-09-03T03:46:25.070Z,97.60
2017-09-03T03:49:30.701Z,97.60
2017-09-03T03:52:36.128Z,97.50
2017-09-03T03:55:43.727Z,97.70
2017-09-03T03:58:48.872Z,97.70
2017-09-03T04:02:02.236Z,97.60
2017-09-03T04:05:11.154Z,97.90
2017-09-03T04:08:19.240Z,98.10
2017-09-03T04:11:25.133Z,98.30
2017-09-03T04:14:29.935Z,98.40
2017-09-03T04:17:35.184Z,98.40
2017-09-03T04:20:40.802Z,98.60
2017-09-03T04:23:46.210Z,98.20
2017-09-03T04:26:51.324Z,98.20
2017-09-03T04:29:56.247Z,98.20
2017-09-03T04:33:07.883Z,98.20
2017-09-03T04:36:14.114Z,98.40
2017-09-03T04:39:20.179Z,98.50
2017-09-03T04:42:25.744Z,98.60
2017-09-03T04:45:31.040Z,98.60
2017-09-03T04:48:36.029Z,98.40
2017-09-03T04:51:41.067Z,98.40
2017-09-03T04:54:46.092Z,98.40
2017-09-03T04:57:54.164Z,98.30
2017-09-03T05:00:59.943Z,98.20
2017-09-03T05:04:04.763Z,98.20
2017-09-03T05:07:11.507Z,98.10
2017-09-03T05:10:16.945Z,98.40
2017-09-03T05:13:22.235Z,98.20
2017-09-03T05:16:27.265Z,98.40
2017-09-03T05:19:32.244Z,98.50
2017-09-03T05:22:37.167Z,98.70
2017-09-03T05:25:42.163Z,98.40
2017-09-03T05:28:47.580Z,98.20
2017-09-03T05:31:56.664Z,98.40
2017-09-03T05:35:02.359Z,98.60
2017-09-03T05:38:08.000Z,98.10
2017-09-03T05:41:12.840Z,97.40
2017-09-03T05:44:17.624Z,97.60
2017-09-03T05:47:23.131Z,97.90
2017-09-03T05:50:31.867Z,97.90
2017-09-03T05:53:40.656Z,98.10
2017-09-03T05:56:46.413Z,98.10
2017-09-03T05:59:54.880Z,98.20
2017-09-03T06:03:00.069Z,97.20
2017-09-03T06:06:05.780Z,96.90
2017-09-03T06:09:11.845Z,97.30
2017-09-03T06:12:17.688Z,97.10
2017-09-03T06:15:24.203Z,97.80
2017-09-03T06:18:29.335Z,97.40
2017-09-03T06:21:35.002Z,96.60
2017-09-03T06:24:40.191Z,96.00
2017-09-03T06:27:45.888Z,96.40
2017-09-03T06:30:50.840Z,97.70
2017-09-03T06:33:57.204Z,96.50
2017-09-03T06:37:04.709Z,95.70
2017-09-03T06:40:10.348Z,95.70
2017-09-03T06:43:15.284Z,96.10
2017-09-03T06:46:21.132Z,95.70
2017-09-03T06:49:27.799Z,96.60
2017-09-03T06:52:33.396Z,96.50
2017-09-03T06:55:39.109Z,96.30
2017-09-03T06:58:44.818Z,95.80
2017-09-03T07:01:50.247Z,94.90
2017-09-03T07:04:55.853Z,95.50
2017-09-03T07:08:00.556Z,95.80
2017-09-03T07:11:06.397Z,94.30
2017-09-03T07:14:11.644Z,95.00
2017-09-03T07:17:18.571Z,95.30
2017-09-03T07:20:24.310Z,95.30
2017-09-03T07:23:29.267Z,94.70
2017-09-03T07:26:34.235Z,94.60
2017-09-03T07:29:39.783Z,94.10
2017-09-03T07:32:45.523Z,94.40
2017-09-03T07:35:51.212Z,93.90
2017-09-03T07:38:59.214Z,94.10
2017-09-03T07:42:13.022Z,93.80
2017-09-03T07:45:18.972Z,94.10
2017-09-03T07:48:24.371Z,94.50
2017-09-03T07:51:29.481Z,94.10
2017-09-03T07:54:36.900Z,94.00
2017-09-03T07:57:41.944Z,93.60
2017-09-03T08:00:47.499Z,93.90
2017-09-03T08:03:53.997Z,93.70
2017-09-03T08:07:01.988Z,93.20
2017-09-03T08:10:07.455Z,93.00
2017-09-03T08:13:13.095Z,93.20
2017-09-03T08:16:18.724Z,93.30
2017-09-03T08:19:24.157Z,93.80
2017-09-03T08:22:29.428Z,93.40
2017-09-03T08:25:35.580Z,92.80
2017-09-03T08:28:42.072Z,92.30
2017-09-03T08:31:46.808Z,91.20
2017-09-03T08:34:52.144Z,91.00
2017-09-03T08:37:57.307Z,91.20
2017-09-03T08:41:02.936Z,92.30
2017-09-03T08:44:08.181Z,91.70
2017-09-03T08:47:13.101Z,91.70
2017-09-03T08:50:18.889Z,91.10
2017-09-03T08:53:24.045Z,91.40
2017-09-03T08:56:29.987Z,90.70
2017-09-03T08:59:35.197Z,90.10
2017-09-03T09:02:40.140Z,90.80
2017-09-03T09:05:45.355Z,90.70
2017-09-03T09:08:51.609Z,89.10
2017-09-03T09:11:56.923Z,90.00
2017-09-03T09:15:01.896Z,89.70
2017-09-03T09:18:06.696Z,89.00
2017-09-03T09:21:12.102Z,90.00
2017-09-03T09:24:17.751Z,89.60
2017-09-03T09:27:23.275Z,89.00
2017-09-03T09:30:28.584Z,87.70
2017-09-03T09:33:36.829Z,88.10
2017-09-03T09:36:42.980Z,87.90
2017-09-03T09:39:54.266Z,86.80
2017-09-03T09:43:01.195Z,82.30
2017-09-03T09:46:06.160Z,82.30
2017-09-03T09:49:12.676Z,85.60
2017-09-03T09:52:18.024Z,84.20
2017-09-03T09:55:24.949Z,84.20
2017-09-03T09:58:30.528Z,83.70
2017-09-03T10:01:36.173Z,83.00
2017-09-03T10:04:41.642Z,79.40
2017-09-03T10:07:46.408Z,79.30
2017-09-03T10:10:55.139Z,81.50
2017-09-03T10:13:59.970Z,78.20
2017-09-03T10:17:05.898Z,79.20
2017-09-03T10:20:11.645Z,78.90
2017-09-03T10:23:16.804Z,76.90
2017-09-03T10:26:23.195Z,77.80
2017-09-03T10:29:27.928Z,79.40
2017-09-03T10:32:33.455Z,80.40
2017-09-03T10:35:39.071Z,81.70
2017-09-03T10:38:44.280Z,78.50
2017-09-03T10:41:49.601Z,75.70
2017-09-03T10:44:55.411Z,77.20
2017-09-03T10:48:00.592Z,79.90
2017-09-03T10:51:06.095Z,78.40
2017-09-03T10:54:11.099Z,79.90
2017-09-03T10:57:16.504Z,79.50
2017-09-03T11:00:23.247Z,77.50
2017-09-03T11:03:28.913Z,77.50
2017-09-03T11:06:34.941Z,76.50
2017-09-03T11:09:40.727Z,75.80
2017-09-03T11:12:45.451Z,74.30
2017-09-03T11:15:50.831Z,73.40
2017-09-03T11:18:56.467Z,75.10
2017-09-03T11:22:01.539Z,71.10
2017-09-03T11:25:06.988Z,71.70
2017-09-03T11:28:12.049Z,72.20
2017-09-03T11:31:17.431Z,73.90
2017-09-03T11:34:22.647Z,73.90
2017-09-03T11:37:27.993Z,70.50
2017-09-03T11:40:33.000Z,69.50
2017-09-03T11:43:38.153Z,70.90
2017-09-03T11:46:43.756Z,74.30
2017-09-03T11:49:48.924Z,70.80
2017-09-03T11:52:54.512Z,67.90
2017-09-03T11:55:59.977Z,71.00
2017-09-03T11:59:05.060Z,70.80
2017-09-03T12:02:10.508Z,71.80
2017-09-03T12:05:15.420Z,70.60
2017-09-03T12:08:20.807Z,70.90
2017-09-03T12:11:26.564Z,70.20
2017-09-03T12:14:31.392Z,72.20
2017-09-03T12:17:37.011Z,69.60
2017-09-03T12:20:41.921Z,68.30
2017-09-03T12:23:46.883Z,67.80
2017-09-03T12:26:52.288Z,67.70
2017-09-03T12:29:57.887Z,69.10
2017-09-03T12:33:03.190Z,69.10
2017-09-03T12:36:08.966Z,69.10
2017-09-03T12:39:14.275Z,69.80
2017-09-03T12:42:20.181Z,70.70
2017-09-03T12:45:25.456Z,69.20
2017-09-03T12:48:32.186Z,67.90
2017-09-03T12:51:37.843Z,66.30
2017-09-03T12:54:43.036Z,68.40
2017-09-03T12:57:47.980Z,67.30
2017-09-03T13:00:53.548Z,67.30
2017-09-03T13:03:58.965Z,67.10
2017-09-03T13:07:04.988Z,68.30
2017-09-03T13:10:10.123Z,68.30
2017-09-03T13:13:14.938Z,67.30
2017-09-03T13:16:20.048Z,67.80
2017-09-03T13:19:25.623Z,67.60
2017-09-03T13:22:31.667Z,65.90
2017-09-03T13:25:36.604Z,65.60
2017-09-03T13:28:42.256Z,63.50
2017-09-03T13:31:47.648Z,62.30
2017-09-03T13:34:52.516Z,62.30
2017-09-03T13:37:58.891Z,64.30
2017-09-03T13:41:03.667Z,64.20
2017-09-03T13:44:08.732Z,63.50
2017-09-03T13:47:13.618Z,62.50
2017-09-03T13:50:18.534Z,60.10
2017-09-03T13:53:23.361Z,62.60
2017-09-03T13:56:28.868Z,61.10
2017-09-03T13:59:34.519Z,60.80
2017-09-03T14:02:39.672Z,63.60
2017-09-03T14:05:44.932Z,62.90
2017-09-03T14:08:52.639Z,65.20
2017-09-03T14:11:57.883Z,63.80
2017-09-03T14:15:06.592Z,60.00
2017-09-03T14:18:12.231Z,61.20
2017-09-03T14:21:17.026Z,62.70
2017-09-03T14:24:22.576Z,61.80
2017-09-03T14:27:28.040Z,64.20
2017-09-03T14:30:33.641Z,63.90
2017-09-03T14:33:39.148Z,65.00
2017-09-03T14:36:44.183Z,64.00
2017-09-03T14:39:49.436Z,63.50
2017-09-03T14:42:54.800Z,63.60
2017-09-03T14:45:59.888Z,64.20
2017-09-03T14:49:05.191Z,65.00
2017-09-03T14:52:11.036Z,63.40
2017-09-03T14:55:17.372Z,62.40
2017-09-03T14:58:23.235Z,64.10
2017-09-03T15:01:28.644Z,64.40
2017-09-03T15:04:33.564Z,64.20
2017-09-03T15:07:39.041Z,63.40
2017-09-03T15:10:44.179Z,64.70
2017-09-03T15:13:57.470Z,62.30
2017-09-03T15:17:02.251Z,65.90
2017-09-03T15:20:06.960Z,62.30
2017-09-03T15:23:12.574Z,61.90
2017-09-03T15:26:17.760Z,63.70
2017-09-03T15:29:22.768Z,61.70
2017-09-03T15:32:29.489Z,62.40
2017-09-03T15:35:34.983Z,64.50
2017-09-03T15:38:40.048Z,64.80
2017-09-03T15:41:45.720Z,64.60
2017-09-03T15:44:50.610Z,62.30
2017-09-03T15:47:55.716Z,65.00
2017-09-03T15:51:00.935Z,63.00
2017-09-03T15:54:06.280Z,62.40
2017-09-03T15:57:11.988Z,63.80
2017-09-03T16:00:16.740Z,63.10
2017-09-03T16:03:21.468Z,62.60
2017-09-03T16:06:27.623Z,61.40
2017-09-03T16:09:32.663Z,62.90
2017-09-03T16:12:37.912Z,62.60
2017-09-03T16:15:42.897Z,63.20
2017-09-03T16:18:48.345Z,63.10
2017-09-03T16:21:53.752Z,63.40
2017-09-03T16:24:58.972Z,63.60
2017-09-03T16:28:03.931Z,63.60
2017-09-03T16:31:08.995Z,63.10
2017-09-03T16:34:14.291Z,63.40
2017-09-03T16:37:19.276Z,62.60
2017-09-03T16:40:24.768Z,62.20
2017-09-03T16:43:29.541Z,62.10
2017-09-03T16:46:34.655Z,63.20
2017-09-03T16:49:43.052Z,63.40
2017-09-03T16:52:51.870Z,63.50
2017-09-03T16:55:56.585Z,63.80
2017-09-03T16:59:01.812Z,64.10
2017-09-03T17:02:07.084Z,65.60
2017-09-03T17:05:12.435Z,67.60
2017-09-03T17:08:17.281Z,68.00
2017-09-03T17:11:22.390Z,68.90
2017-09-03T17:14:27.800Z,69.70
2017-09-03T17:17:33.246Z,69.20
2017-09-03T17:20:38.042Z,69.80
2017-09-03T17:23:42.900Z,71.90
2017-09-03T17:26:48.680Z,72.90
2017-09-03T17:29:53.813Z,74.60
2017-09-03T17:33:00.203Z,73.70
2017-09-03T17:36:08.724Z,74.70
2017-09-03T17:39:14.145Z,75.70
2017-09-03T17:42:22.146Z,76.90
2017-09-03T17:45:27.403Z,76.90
2017-09-03T17:48:32.584Z,78.40
2017-09-03T17:51:37.403Z,79.30
2017-09-03T17:54:44.632Z,80.00
2017-09-03T17:57:49.852Z,82.10
2017-09-03T18:00:55.701Z,83.40
2017-09-03T18:04:01.214Z,84.10
2017-09-03T18:07:10.448Z,84.40
2017-09-03T18:10:15.853Z,86.30
2017-09-03T18:16:39.133Z,88.20
2017-09-03T18:19:55.942Z,88.90
2017-09-03T18:23:01.313Z,90.10
2017-09-03T18:26:10.172Z,90.10
2017-09-03T18:29:15.772Z,89.60
2017-09-03T18:32:21.277Z,90.50
2017-09-03T18:35:27.200Z,91.40
2017-09-03T18:38:36.244Z,91.90
2017-09-03T18:41:41.839Z,91.80
2017-09-03T18:44:47.304Z,92.10
2017-09-03T18:47:52.176Z,92.30
2017-09-03T18:54:42.471Z,93.00
2017-09-03T19:01:36.254Z,92.80
2017-09-03T19:04:46.309Z,92.80
2017-09-03T19:07:51.679Z,92.80
2017-09-03T19:10:57.068Z,92.70
2017-09-03T19:14:02.153Z,92.90
2017-09-03T19:17:07.107Z,92.90
2017-09-03T19:20:12.767Z,93.40
2017-09-03T19:23:18.240Z,93.30
2017-09-03T19:26:23.840Z,93.30
2017-09-03T19:29:33.223Z,93.40
2017-09-03T19:32:38.218Z,93.20
2017-09-03T19:35:43.647Z,93.30
2017-09-03T19:38:50.802Z,92.70
2017-09-03T19:41:55.535Z,93.40
2017-09-03T19:45:00.407Z,93.60
2017-09-03T19:48:05.601Z,93.70
2017-09-03T19:51:13.332Z,94.30
2017-09-03T19:54:18.287Z,94.10
2017-09-03T19:57:23.012Z,94.20
2017-09-03T20:00:28.120Z,94.00
2017-09-03T20:03:33.620Z,93.90
2017-09-03T20:06:38.461Z,94.30
2017-09-03T20:09:44.072Z,94.30
2017-09-03T20:12:48.778Z,94.30
2017-09-03T20:15:57.440Z,94.40
2017-09-03T20:19:02.143Z,94.20
2017-09-03T20:22:07.168Z,94.40
2017-09-03T20:25:13.731Z,94.60
2017-09-03T20:28:19.180Z,94.50
2017-09-03T20:31:24.004Z,94.30
2017-09-03T20:34:28.957Z,94.40
2017-09-03T20:37:34.205Z,94.50
2017-09-03T20:40:39.854Z,94.30
2017-09-03T20:43:44.898Z,94.30
2017-09-03T20:46:49.940Z,94.00
2017-09-03T20:49:55.584Z,94.20
2017-09-03T20:53:01.183Z,93.80
2017-09-03T20:56:06.596Z,94.10
2017-09-03T20:59:12.184Z,93.90
2017-09-03T21:02:17.679Z,94.10
2017-09-03T21:05:22.828Z,94.20
2017-09-03T21:08:28.072Z,93.50
2017-09-03T21:11:33.248Z,93.30
2017-09-03T21:14:38.375Z,94.00
2017-09-03T21:17:43.431Z,94.50
2017-09-03T21:20:55.922Z,94.70
2017-09-03T21:24:00.843Z,94.40
2017-09-03T21:27:05.988Z,94.70
2017-09-03T21:30:11.209Z,94.80
2017-09-03T21:33:16.591Z,94.80
2017-09-03T21:36:22.206Z,94.80
2017-09-03T21:39:29.395Z,94.80
2017-09-03T21:42:34.351Z,94.80
2017-09-03T21:45:39.216Z,94.80
2017-09-03T21:48:44.738Z,95.10
2017-09-03T21:51:50.012Z,95.90
2017-09-03T21:55:01.869Z,96.30
2017-09-03T21:58:10.440Z,96.10
2017-09-03T22:01:15.728Z,96.10
2017-09-03T22:04:20.812Z,96.00
2017-09-03T22:07:26.069Z,95.80
2017-09-03T22:10:33.579Z,95.70
2017-09-03T22:13:38.403Z,95.80
2017-09-03T22:16:44.191Z,95.80
2017-09-03T22:19:49.038Z,95.70
2017-09-03T22:22:53.997Z,95.50
2017-09-03T22:25:58.934Z,96.00
2017-09-03T22:29:04.244Z,96.00
2017-09-03T22:32:09.465Z,95.90
2017-09-03T22:35:14.199Z,96.00
2017-09-03T22:38:19.108Z,95.60
2017-09-03T22:41:28.623Z,95.50
2017-09-03T22:44:34.203Z,95.50
2017-09-03T22:47:39.058Z,96.20
2017-09-03T22:50:44.261Z,96.00
2017-09-03T22:53:49.900Z,96.40
2017-09-03T22:56:55.249Z,96.50
2017-09-03T23:00:00.176Z,96.60
2017-09-03T23:03:10.925Z,97.10
2017-09-03T23:06:16.404Z,97.00
2017-09-03T23:09:22.872Z,97.00
2017-09-03T23:12:28.149Z,97.40
2017-09-03T23:15:33.039Z,97.40
2017-09-03T23:18:38.405Z,97.30
2017-09-03T23:21:43.315Z,97.40
2017-09-03T23:24:48.348Z,96.40
2017-09-03T23:27:53.848Z,96.40
2017-09-03T23:30:59.304Z,96.40
2017-09-03T23:34:04.959Z,96.50
2017-09-03T23:37:11.231Z,96.60
2017-09-03T23:40:27.964Z,96.60
2017-09-03T23:43:34.488Z,96.80
2017-09-03T23:46:39.655Z,97.20
2017-09-03T23:49:45.140Z,97.10
2017-09-03T23:52:50.348Z,97.00
2017-09-03T23:55:55.744Z,97.10
2017-09-03T23:59:02.067Z,97.40
